Avalanche — WDH7465 — position and weather

sailwx.info

Track history (hours):
 
Tides and Currents Weather Stations Pressure Air Temp Water Temp Dewpoint Dewpoint Depression Visibility Wind Speed Wind Dir Waves Ship Positions

Avalanche

Owner: Ehrick, Richard T, Steamboat Springs, CO. More information available from US FCC via Universal Licensing System and Coast Guard Vessel Documentation Center.

Last reported at 2017-Oct-05 00:12 UTC. Time now 2017-Oct-19 15:00 UTC.
Position N 37°56' W 122°26'.
Warning: this ship's position is 14 days out of date.

Length 20 m.

Type: Pleasure craft. MMSI: 367648430.

Date/timePositionNaut miles runAvg speedWind from/ knotsBaromVisibWave heightAir tempDewpointWater temp
2017-Oct-05 00:12N 37°56' W 122°26'1 6.0
2017-Oct-05 00:00N 37°55' W 122°25'3 6.2
2017-Oct-04 23:30N 37°52' W 122°24'4 6.7
2017-Oct-04 22:56N 37°51' W 122°19'1 1.4
2017-Oct-04 22:30N 37°51' W 122°19'  
2017-Oct-01 23:04N 37°51' W 122°19'0 0.1
2017-Oct-01 22:58N 37°51' W 122°19'2 5.2
2017-Oct-01 22:30N 37°50' W 122°22'1 2.5
2017-Oct-01 22:00N 37°49' W 122°22'0 0.0
2017-Oct-01 21:27N 37°49' W 122°22'0 0.0
2017-Oct-01 20:57N 37°49' W 122°22'0 0.0
2017-Oct-01 20:30N 37°49' W 122°22'0 0.6
2017-Oct-01 19:59N 37°49' W 122°22'3 5.9
2017-Oct-01 19:26N 37°52' W 122°24'  
Track history (hours):
 
Tides and Currents Weather Stations Pressure Air Temp Water Temp Dewpoint Dewpoint Depression Visibility Wind Speed Wind Dir Waves Ship Positions

Avalanche

Owner: Ehrick, Richard T, Steamboat Springs, CO. More information available from US FCC via Universal Licensing System and Coast Guard Vessel Documentation Center.

Last reported at 2017-Oct-05 00:12 UTC. Time now 2017-Oct-19 15:00 UTC.
Position N 37°56' W 122°26'.
Warning: this ship's position is 14 days out of date.

Length 20 m.

Type: Pleasure craft. MMSI: 367648430.

Date/timePositionNaut miles runAvg speedWind from/ knotsBaromVisibWave heightAir tempDewpointWater temp
2017-Oct-05 00:12N 37°56' W 122°26'1 6.0
2017-Oct-05 00:00N 37°55' W 122°25'3 6.2
2017-Oct-04 23:30N 37°52' W 122°24'4 6.7
2017-Oct-04 22:56N 37°51' W 122°19'1 1.4
2017-Oct-04 22:30N 37°51' W 122°19'  
2017-Oct-01 23:04N 37°51' W 122°19'0 0.1
2017-Oct-01 22:58N 37°51' W 122°19'2 5.2
2017-Oct-01 22:30N 37°50' W 122°22'1 2.5
2017-Oct-01 22:00N 37°49' W 122°22'0 0.0
2017-Oct-01 21:27N 37°49' W 122°22'0 0.0
2017-Oct-01 20:57N 37°49' W 122°22'0 0.0
2017-Oct-01 20:30N 37°49' W 122°22'0 0.6
2017-Oct-01 19:59N 37°49' W 122°22'3 5.9
2017-Oct-01 19:26N 37°52' W 122°24'  

Dump ship's entire track history